Cherryfield, ME (04622)

6:59 AM EDT on April 27, 2017 (GMT -0400)
Ed Greaves Education (EdGE) Center | | Change Station
Active Advisory: Special Statement

Elev 65 ft 44.59 °N, 67.93 °W | Updated 0 second ago

Overcast
Overcast
49.1 °F
Feels Like 49 °F
N
0.0
Wind Variable Wind from South
Gusts 1.0 mph

Today
High -- | Low -- °F
--% Chance of Precip.
Yesterday
High -- | Low -- °F
Precip. -- in
Pressure 29.98 in
Visibility 0.5 miles
Clouds Overcast 300 ft
Windchill 49 °F
Dew Point 49 °F
Humidity 99%
Rainfall 0.11 in
Snow Depth Not available.
5:27 AM 7:31 PM
New Moon, 1% visible
METAR KBHB 271056Z AUTO 07005KT 1/2SM FG OVC003 09/09 A2997 RMK AO2 SLP151 T00940089 RVRNO
Pressure 29.98 in
Visibility 0.5 miles
Clouds Overcast 300 ft
Windchill 49 °F
Dew Point 49 °F
Humidity 99%
Rainfall 0.11 in
Snow Depth Not available.
5:27 AM 7:31 PM
New Moon, 1% visible
METAR KBHB 271056Z AUTO 07005KT 1/2SM FG OVC003 09/09 A2997 RMK AO2 SLP151 T00940089 RVRNO

Get Your Daily Forecast Email!

Thanks for signing up!

Be on the lookout for a verification email in your inbox.

You'll start receiving severe weather alerts in your inbox..

×

10-Day Weather Forecast

Almanac

Astronomy

Apr. 27, 2017 Rise Set
Actual Time
Civil Twilight
Nautical Twilight
Astronomical Twilight
Moon
Length of Visible Light
Length of Day
Tomorrow will be .
, % of the Moon is Illuminated

Today's Extremes

State Highs State Lows

Community

WunderPhotos

WunderBlog® & News

Nearby

Air Quality

  Air Quality AQ Index Pollutant
Not available.

Snow Depth

Station Depth Elevation

Earthquake Activity

City Distance Mag. Time & Date
Minimum magnitude displayed is 2.5.

Coastal Water Temperatures

Place Temperature

Stations

Nearby Weather Stations

Station Location Temp. Windchill Dew Point Humidity Wind Precip. Elev Updated Type
                   

Watches & Warnings

Special Statement
Issued: 6:19 AM EDT Apr. 27, 2017 – National Weather Service

... Locally dense fog this morning...

Areas of locally dense fog can be expected through mid morning.
The fog will reduce visibility to one-half mile or less in some
areas. Motorists should use caution this morning and be prepared
for the potential for reduced visibility on area roads.


TD


619 am EDT Thu Apr 27 2017

... Locally dense fog this morning...

Areas of locally dense fog can be expected through mid morning.
The fog will reduce visibility to one-half mile or less in some
areas. Motorists should use caution this morning and be prepared
for the potential for reduced visibility on area roads.


TD